Time;durP1;ratioP1;P1;durP2;ratioP2;P2;SDS_P1;SDS_P2;PMS_P1;PMS_P2;Temp;Humidity;BMP_temperature;BMP_pressure;BME280_temperature;BME280_humidity;BME280_pressure;Samples;Min_cycle;Max_cycle;Signal;HPM_P1;HPM_P2
2022/09/27 00:02:04;;;;;;;8.20;1.92;;;10.70;99.90;;;;;;5981535;24;20027;-94
2022/09/27 00:04:29;;;;;;;9.70;2.08;;;10.70;99.90;;;;;;5979505;24;20016;-95
2022/09/27 00:06:55;;;;;;;9.07;2.00;;;10.70;99.90;;;;;;5956704;24;20040;-94
2022/09/27 00:09:21;;;;;;;8.48;1.77;;;10.60;99.90;;;;;;5979845;24;20024;-94
2022/09/27 00:11:46;;;;;;;7.53;1.60;;;10.60;99.90;;;;;;5984723;24;20016;-95
2022/09/27 00:14:14;;;;;;;7.00;1.55;;;10.60;99.90;;;;;;5958973;24;20430;-95
2022/09/27 00:16:41;;;;;;;7.60;1.50;;;10.60;99.90;;;;;;5958231;24;20016;-95
2022/09/27 00:19:14;;;;;;;7.55;1.70;;;10.50;99.90;;;;;;5957303;24;20016;-95
2022/09/27 00:21:40;;;;;;;9.70;1.60;;;10.40;99.90;;;;;;5957269;24;20103;-94
2022/09/27 00:24:06;;;;;;;7.05;1.33;;;10.30;99.90;;;;;;5956943;24;20062;-95
2022/09/27 00:26:32;;;;;;;8.38;1.70;;;10.30;99.90;;;;;;5956562;24;20016;-96
2022/09/27 00:28:58;;;;;;;8.50;1.67;;;10.30;99.90;;;;;;5956804;24;20469;-95
2022/09/27 00:31:29;;;;;;;7.22;1.30;;;10.20;99.90;;;;;;5979717;24;20020;-94
2022/09/27 00:33:56;;;;;;;8.23;1.40;;;10.20;99.90;;;;;;5958609;24;20024;-94
2022/09/27 00:36:23;;;;;;;8.40;1.27;;;10.20;99.90;;;;;;5981998;24;20016;-94
2022/09/27 00:38:49;;;;;;;7.05;1.13;;;10.20;99.90;;;;;;5979739;24;20124;-95
2022/09/27 00:41:23;;;;;;;9.38;1.50;;;10.10;99.90;;;;;;5981955;24;20327;-96
2022/09/27 00:43:57;;;;;;;6.28;1.10;;;10.10;99.90;;;;;;5956318;24;20015;-94
2022/09/27 00:46:45;;;;;;;7.45;1.55;;;10.10;99.90;;;;;;5957242;24;20087;-96
2022/09/27 00:49:23;;;;;;;6.63;1.40;;;10.10;99.90;;;;;;5982283;24;20023;-94
2022/09/27 00:51:53;;;;;;;5.28;1.15;;;10.10;99.90;;;;;;5979931;24;20391;-95
2022/09/27 00:54:21;;;;;;;7.53;1.30;;;10.10;99.90;;;;;;5961324;24;20469;-95
2022/09/27 00:56:48;;;;;;;6.72;1.30;;;10.10;99.90;;;;;;5983111;24;20013;-95
2022/09/27 00:59:29;;;;;;;8.60;1.33;;;10.00;99.90;;;;;;5957953;24;20050;-95
2022/09/27 01:01:55;;;;;;;3.70;0.60;;;10.10;99.90;;;;;;5979800;24;20020;-93
2022/09/27 01:04:23;;;;;;;9.23;1.35;;;10.00;99.90;;;;;;5980358;24;20020;-94
2022/09/27 01:06:50;;;;;;;6.13;1.30;;;10.00;99.90;;;;;;5956696;24;20798;-94
2022/09/27 01:09:16;;;;;;;5.90;1.25;;;10.00;99.90;;;;;;5979660;24;20023;-94
2022/09/27 01:11:47;;;;;;;6.57;1.25;;;10.00;99.90;;;;;;5980179;24;20035;-93
2022/09/27 01:15:04;;;;;;;6.15;1.23;;;10.00;99.90;;;;;;5957497;24;20024;-95
2022/09/27 01:18:00;;;;;;;8.48;1.40;;;10.00;99.90;;;;;;5876036;24;20021;-94
2022/09/27 01:20:31;;;;;;;11.95;1.50;;;10.00;99.90;;;;;;5896326;24;20028;-94
2022/09/27 01:23:03;;;;;;;;;;;9.90;99.90;;;;;;5874093;24;20018;-94
2022/09/27 01:25:44;;;;;;;7.90;1.30;;;9.90;99.90;;;;;;5851973;24;19962;-94
2022/09/27 01:28:20;;;;;;;1.92;0.73;;;9.90;99.90;;;;;;5900391;24;20013;-94
2022/09/27 01:30:58;;;;;;;8.50;1.38;;;9.90;99.90;;;;;;5896436;24;20021;-93
2022/09/27 01:33:44;;;;;;;6.30;0.95;;;10.00;99.90;;;;;;5874391;24;20025;-93
2022/09/27 01:36:22;;;;;;;8.90;1.45;;;9.90;99.90;;;;;;5873742;24;20039;-94
2022/09/27 01:38:56;;;;;;;7.45;1.40;;;10.00;99.90;;;;;;5895933;24;20017;-95
2022/09/27 01:41:27;;;;;;;7.50;1.33;;;10.00;99.90;;;;;;5895207;24;20025;-95
2022/09/27 01:43:59;;;;;;;;;;;10.00;99.90;;;;;;5872797;24;20018;-95
2022/09/27 01:46:28;;;;;;;6.95;1.23;;;10.00;99.90;;;;;;5894941;24;19922;-95
2022/09/27 01:48:55;;;;;;;6.18;1.10;;;10.00;99.90;;;;;;5967895;24;20023;-95
2022/09/27 01:51:32;;;;;;;5.50;1.20;;;10.00;99.90;;;;;;5979228;24;20064;-95
2022/09/27 01:54:02;;;;;;;6.82;1.13;;;9.90;99.90;;;;;;5957314;24;20115;-93
2022/09/27 01:56:43;;;;;;;6.53;1.40;;;9.90;99.90;;;;;;5956990;24;20080;-94
2022/09/27 01:59:18;;;;;;;8.32;1.20;;;9.90;99.90;;;;;;5956016;24;20012;-94
2022/09/27 02:01:47;;;;;;;9.10;1.70;;;9.90;99.90;;;;;;5979439;24;20043;-95
2022/09/27 02:04:18;;;;;;;5.40;1.20;;;9.90;99.90;;;;;;5956296;24;20108;-94
2022/09/27 02:06:48;;;;;;;9.63;1.30;;;9.90;99.90;;;;;;5979292;24;20102;-95
2022/09/27 02:09:43;;;;;;;5.45;1.02;;;9.80;99.90;;;;;;5979845;24;20054;-95
2022/09/27 02:12:12;;;;;;;5.35;0.90;;;9.90;99.90;;;;;;5975304;23;20020;-95
2022/09/27 02:14:54;;;;;;;7.15;1.20;;;9.90;99.90;;;;;;5954666;24;20012;-94
2022/09/27 02:17:58;;;;;;;6.68;1.10;;;9.90;99.90;;;;;;5980188;24;20023;-94
2022/09/27 02:20:28;;;;;;;4.07;1.00;;;9.90;99.90;;;;;;5978196;24;20020;-94
2022/09/27 02:23:16;;;;;;;5.57;1.17;;;9.90;99.90;;;;;;5978443;24;20016;-95
2022/09/27 02:26:00;;;;;;;6.35;1.50;;;10.00;99.90;;;;;;5956141;24;20016;-95
2022/09/27 02:29:01;;;;;;;2.35;0.63;;;9.90;99.90;;;;;;5979413;24;20087;-93
2022/09/27 02:31:26;;;;;;;8.50;1.40;;;9.90;99.90;;;;;;5963934;23;20446;-95
2022/09/27 02:33:58;;;;;;;7.07;1.10;;;9.90;99.90;;;;;;5958184;24;20221;-96
2022/09/27 02:36:24;;;;;;;6.15;1.45;;;9.90;99.90;;;;;;5980481;24;20024;-95
2022/09/27 02:38:50;;;;;;;9.02;1.20;;;9.90;99.90;;;;;;5959369;24;20049;-95
2022/09/27 02:41:21;;;;;;;5.72;0.95;;;9.90;99.90;;;;;;5986603;24;20016;-95
2022/09/27 02:43:58;;;;;;;;;;;9.90;99.90;;;;;;5983661;24;20043;-96
2022/09/27 02:46:33;;;;;;;5.82;1.10;;;9.80;99.90;;;;;;5985015;24;19919;-96
2022/09/27 02:49:24;;;;;;;6.63;1.00;;;9.80;99.90;;;;;;5960689;24;20076;-96
2022/09/27 02:52:08;;;;;;;7.97;1.57;;;9.80;99.90;;;;;;5958734;24;20020;-95
2022/09/27 02:54:49;;;;;;;5.05;1.10;;;9.80;99.90;;;;;;5959265;24;20034;-95
2022/09/27 02:57:34;;;;;;;7.55;0.80;;;9.80;99.90;;;;;;5962309;24;20044;-95
2022/09/27 03:00:09;;;;;;;6.28;1.10;;;9.80;99.90;;;;;;5960256;24;20020;-96
2022/09/27 03:02:47;;;;;;;4.57;1.00;;;9.80;99.90;;;;;;5985716;24;20024;-96
2022/09/27 03:05:24;;;;;;;6.25;1.20;;;9.80;99.90;;;;;;5961033;24;20027;-95
2022/09/27 03:07:50;;;;;;;4.35;1.00;;;9.80;99.90;;;;;;5961580;24;20024;-96
2022/09/27 03:10:25;;;;;;;5.88;1.27;;;9.80;99.90;;;;;;5983583;24;20096;-93
2022/09/27 03:12:53;;;;;;;5.13;1.30;;;9.80;99.90;;;;;;5983395;23;20052;-94
2022/09/27 03:15:19;;;;;;;5.28;1.13;;;9.80;99.90;;;;;;5983916;24;20091;-95
2022/09/27 03:17:45;;;;;;;4.03;0.85;;;9.80;99.90;;;;;;5957616;24;20028;-95
2022/09/27 03:20:11;;;;;;;5.20;1.00;;;9.80;99.90;;;;;;5981312;24;20022;-95
2022/09/27 03:22:37;;;;;;;3.67;0.88;;;9.80;99.90;;;;;;5981439;24;20055;-95
2022/09/27 03:25:04;;;;;;;5.28;1.08;;;9.80;99.90;;;;;;5982365;24;20016;-94
2022/09/27 03:27:30;;;;;;;5.03;1.13;;;9.80;99.90;;;;;;5957095;24;20048;-96
2022/09/27 03:29:56;;;;;;;3.92;0.70;;;9.80;99.90;;;;;;5982830;24;20023;-96
2022/09/27 03:32:22;;;;;;;5.45;0.93;;;9.70;99.90;;;;;;5956733;24;20021;-95
2022/09/27 03:34:47;;;;;;;6.63;1.10;;;9.70;99.90;;;;;;5958014;24;20016;-95
2022/09/27 03:37:13;;;;;;;5.50;1.20;;;9.80;99.90;;;;;;5982382;24;20012;-95
2022/09/27 03:39:39;;;;;;;3.83;1.00;;;9.80;99.90;;;;;;5982067;24;20083;-96
2022/09/27 03:42:05;;;;;;;5.88;1.00;;;9.80;99.90;;;;;;5957109;24;20067;-95
2022/09/27 03:44:31;;;;;;;6.90;1.33;;;9.80;99.90;;;;;;5960453;24;20016;-95
2022/09/27 03:46:58;;;;;;;6.85;1.10;;;9.80;99.90;;;;;;5960318;24;20008;-96
2022/09/27 03:49:23;;;;;;;7.18;1.00;;;9.70;99.90;;;;;;5982170;24;20473;-96
2022/09/27 03:51:49;;;;;;;5.95;0.98;;;9.70;99.90;;;;;;5957000;24;20020;-95
2022/09/27 03:54:15;;;;;;;5.85;1.23;;;9.70;99.90;;;;;;5958261;24;20016;-95
2022/09/27 03:56:40;;;;;;;4.65;0.98;;;9.70;99.90;;;;;;5983475;24;20023;-96
2022/09/27 03:59:06;;;;;;;6.68;1.40;;;9.70;99.90;;;;;;5958343;24;20020;-94
2022/09/27 04:01:34;;;;;;;6.60;1.17;;;9.70;99.90;;;;;;5980802;24;20367;-95
2022/09/27 04:04:00;;;;;;;4.38;0.98;;;9.70;99.90;;;;;;5982771;24;20039;-96
2022/09/27 04:06:25;;;;;;;6.13;1.20;;;9.70;99.90;;;;;;5983787;24;20024;-94
2022/09/27 04:08:52;;;;;;;7.43;1.15;;;9.60;99.90;;;;;;5958937;24;20459;-95
2022/09/27 04:11:18;;;;;;;5.20;1.10;;;9.60;99.90;;;;;;5958125;24;20012;-95
2022/09/27 04:13:47;;;;;;;6.38;1.10;;;9.60;99.90;;;;;;5957687;24;20148;-96
2022/09/27 04:16:14;;;;;;;6.22;1.23;;;9.60;99.90;;;;;;5957560;24;20104;-95
2022/09/27 04:18:39;;;;;;;7.22;1.13;;;9.60;99.90;;;;;;5981153;24;20012;-95
2022/09/27 04:21:05;;;;;;;4.53;1.10;;;9.60;99.90;;;;;;5958415;24;20043;-96
2022/09/27 04:23:31;;;;;;;6.10;1.25;;;9.50;99.90;;;;;;5960214;24;20016;-96
2022/09/27 04:25:57;;;;;;;8.00;1.30;;;9.50;99.90;;;;;;5981383;24;20451;-96
2022/09/27 04:28:22;;;;;;;7.72;1.20;;;9.50;99.90;;;;;;5980584;24;20119;-95
2022/09/27 04:30:48;;;;;;;5.03;1.00;;;9.50;99.90;;;;;;5958265;24;20016;-96
2022/09/27 04:33:14;;;;;;;6.93;1.10;;;9.60;99.90;;;;;;5980261;24;20020;-95
2022/09/27 04:38:23;;;;;;;4.45;1.00;;;9.40;99.90;;;;;;5982229;24;20107;-96
2022/09/27 04:40:50;;;;;;;4.40;1.10;;;9.40;99.90;;;;;;5961337;24;20348;-96
2022/09/27 04:43:16;;;;;;;5.55;0.85;;;9.40;99.90;;;;;;5958789;24;20095;-95
2022/09/27 04:45:45;;;;;;;4.90;0.90;;;9.40;99.90;;;;;;5957742;24;20023;-94
2022/09/27 04:48:11;;;;;;;3.67;0.95;;;9.40;99.90;;;;;;5958736;24;20012;-96
2022/09/27 04:50:37;;;;;;;4.40;1.10;;;9.40;99.90;;;;;;5981096;24;20349;-95
2022/09/27 04:53:03;;;;;;;6.50;1.20;;;9.50;99.90;;;;;;5958385;24;20056;-94
2022/09/27 04:55:29;;;;;;;4.32;0.80;;;9.40;99.90;;;;;;5961063;24;20013;-96
2022/09/27 04:57:55;;;;;;;4.47;0.90;;;9.40;99.90;;;;;;5982507;24;20044;-96
2022/09/27 05:00:21;;;;;;;4.18;0.90;;;9.40;99.90;;;;;;5960406;24;20465;-95
2022/09/27 05:02:47;;;;;;;4.20;0.57;;;9.40;99.90;;;;;;5958620;24;20016;-95
2022/09/27 05:05:14;;;;;;;3.40;0.60;;;9.40;99.90;;;;;;5961664;24;20052;-94
2022/09/27 05:07:40;;;;;;;2.92;0.77;;;9.30;99.90;;;;;;5985215;24;20020;-94
2022/09/27 05:10:07;;;;;;;2.40;0.77;;;9.40;99.90;;;;;;5961579;24;20053;-94
2022/09/27 05:12:33;;;;;;;3.60;0.80;;;9.40;99.90;;;;;;5958303;24;20342;-93
2022/09/27 05:14:59;;;;;;;4.20;1.13;;;9.30;99.90;;;;;;5983088;24;20460;-94
2022/09/27 05:17:25;;;;;;;4.32;0.90;;;9.30;99.90;;;;;;5983319;24;20095;-93
2022/09/27 05:19:51;;;;;;;3.40;0.90;;;9.30;99.90;;;;;;5982617;24;20076;-94
2022/09/27 05:22:17;;;;;;;4.90;1.30;;;9.20;99.90;;;;;;5980649;24;20016;-93
2022/09/27 05:24:42;;;;;;;6.88;1.30;;;9.20;99.90;;;;;;5980713;24;20058;-93
2022/09/27 05:27:17;;;;;;;2.88;0.60;;;9.20;99.90;;;;;;5980757;24;20016;-92
2022/09/27 05:29:45;;;;;;;6.68;1.00;;;9.20;99.90;;;;;;5981375;24;20039;-94
2022/09/27 05:32:11;;;;;;;5.40;1.23;;;9.10;99.90;;;;;;5960003;24;20081;-95
2022/09/27 05:34:37;;;;;;;3.95;0.98;;;9.10;99.90;;;;;;5958872;24;20012;-93
2022/09/27 05:37:03;;;;;;;3.90;0.88;;;9.00;99.90;;;;;;5979717;24;20024;-94
2022/09/27 05:39:28;;;;;;;3.15;0.75;;;9.10;99.90;;;;;;5956187;24;20435;-94
2022/09/27 05:41:55;;;;;;;5.38;1.10;;;9.10;99.90;;;;;;5954223;24;20027;-93
2022/09/27 05:44:20;;;;;;;6.00;1.20;;;9.00;99.90;;;;;;5955814;24;20016;-95
2022/09/27 05:46:46;;;;;;;5.95;1.10;;;9.00;99.90;;;;;;5978874;24;20371;-93
2022/09/27 05:49:12;;;;;;;7.18;1.35;;;9.00;99.90;;;;;;5981587;24;20027;-93
2022/09/27 05:51:37;;;;;;;3.28;0.98;;;9.10;99.90;;;;;;5954997;24;20068;-94
2022/09/27 05:54:03;;;;;;;3.67;0.70;;;9.10;99.90;;;;;;5956531;24;20060;-94
2022/09/27 05:56:29;;;;;;;3.85;0.93;;;8.90;99.90;;;;;;5978754;24;20016;-93
2022/09/27 05:58:55;;;;;;;5.93;1.08;;;8.90;99.90;;;;;;5951803;24;20020;-93
2022/09/27 06:01:20;;;;;;;5.28;1.20;;;9.00;99.90;;;;;;5953450;24;20017;-92
2022/09/27 06:03:46;;;;;;;6.05;0.90;;;9.10;99.90;;;;;;5952888;24;20056;-91
2022/09/27 06:06:14;;;;;;;5.63;1.15;;;9.00;99.90;;;;;;5953671;24;20469;-91
2022/09/27 06:08:40;;;;;;;6.15;1.15;;;9.00;99.90;;;;;;5952561;24;20345;-94
2022/09/27 06:11:14;;;;;;;6.72;1.50;;;9.00;99.90;;;;;;5950738;24;20008;-92
2022/09/27 06:13:40;;;;;;;6.43;1.50;;;8.90;99.90;;;;;;5975843;24;20023;-92
2022/09/27 06:16:08;;;;;;;5.82;0.93;;;9.00;99.90;;;;;;5976051;24;20107;-91
2022/09/27 06:18:35;;;;;;;9.05;1.63;;;8.90;99.90;;;;;;5976156;23;20020;-93
2022/09/27 06:21:02;;;;;;;3.67;0.90;;;8.90;99.90;;;;;;5975450;24;20108;-92
2022/09/27 06:23:32;;;;;;;6.05;1.38;;;8.80;99.90;;;;;;5952108;24;20015;-92
2022/09/27 06:26:04;;;;;;;5.97;0.90;;;8.90;99.90;;;;;;5972246;24;20009;-91
2022/09/27 06:28:30;;;;;;;6.07;1.02;;;8.90;99.90;;;;;;5951768;24;20281;-92
2022/09/27 06:30:56;;;;;;;6.20;1.30;;;8.90;99.90;;;;;;5952027;24;20116;-92
2022/09/27 06:33:22;;;;;;;5.18;1.30;;;9.00;99.90;;;;;;5975820;24;20020;-92
2022/09/27 06:35:48;;;;;;;7.85;1.50;;;9.00;99.90;;;;;;5974712;24;20027;-89
2022/09/27 06:38:20;;;;;;;5.25;1.10;;;9.10;99.90;;;;;;5980625;24;20019;-96
2022/09/27 06:40:46;;;;;;;6.63;1.38;;;9.20;99.90;;;;;;5963367;24;20020;-94
2022/09/27 06:43:14;;;;;;;5.00;1.10;;;9.30;99.90;;;;;;5961774;24;20019;-96
2022/09/27 06:45:47;;;;;;;7.38;1.48;;;9.30;99.90;;;;;;5991811;24;20023;-95
2022/09/27 06:48:15;;;;;;;6.15;1.42;;;9.50;99.90;;;;;;5960503;24;20131;-93
2022/09/27 06:50:43;;;;;;;6.00;1.27;;;9.40;99.90;;;;;;5953656;24;20339;-94
2022/09/27 06:53:10;;;;;;;5.50;1.20;;;9.40;99.90;;;;;;5974792;24;20016;-92
2022/09/27 06:55:37;;;;;;;7.70;1.70;;;9.40;99.90;;;;;;5974165;24;20516;-93
2022/09/27 07:00:50;;;;;;;6.95;1.30;;;9.40;99.90;;;;;;5974770;24;20031;-94
2022/09/27 07:03:16;;;;;;;5.13;1.27;;;9.50;99.90;;;;;;5976279;24;20023;-95
2022/09/27 07:05:41;;;;;;;6.50;1.40;;;9.50;99.90;;;;;;5953457;24;20020;-93
2022/09/27 07:08:10;;;;;;;8.35;1.73;;;9.50;99.90;;;;;;5976195;24;20017;-93
2022/09/27 07:10:37;;;;;;;4.57;0.98;;;9.60;99.90;;;;;;5976032;24;20016;-95
2022/09/27 07:13:04;;;;;;;7.57;1.45;;;9.60;99.90;;;;;;5953890;24;20116;-95
2022/09/27 07:15:31;;;;;;;7.20;1.35;;;9.60;99.90;;;;;;5976644;23;20020;-95
2022/09/27 07:17:58;;;;;;;5.40;1.40;;;9.70;99.90;;;;;;5951654;24;20451;-96
2022/09/27 07:20:25;;;;;;;6.32;1.88;;;9.60;99.90;;;;;;5959013;24;20056;-95
2022/09/27 07:22:51;;;;;;;6.55;1.42;;;9.60;99.90;;;;;;5957603;24;20020;-95
2022/09/27 07:25:17;;;;;;;9.52;1.50;;;9.70;99.90;;;;;;5956636;24;20025;-94
2022/09/27 07:27:43;;;;;;;5.05;1.30;;;9.70;99.90;;;;;;5955500;24;20024;-94
2022/09/27 07:30:10;;;;;;;6.22;1.50;;;9.80;99.90;;;;;;5956247;24;20023;-93
2022/09/27 07:32:37;;;;;;;6.88;1.48;;;9.70;99.90;;;;;;5956128;24;20024;-96
2022/09/27 07:35:04;;;;;;;7.13;1.70;;;9.70;99.90;;;;;;5979871;24;20383;-95
2022/09/27 07:37:34;;;;;;;5.40;1.48;;;9.70;99.90;;;;;;5979624;24;20039;-95
2022/09/27 07:40:01;;;;;;;3.10;0.70;;;9.80;99.90;;;;;;5958480;24;20055;-96
2022/09/27 07:42:28;;;;;;;6.68;1.40;;;9.70;99.90;;;;;;5980580;24;20017;-94
2022/09/27 07:44:57;;;;;;;7.63;1.67;;;9.80;99.90;;;;;;5979589;24;20020;-94
2022/09/27 07:47:24;;;;;;;6.45;1.27;;;9.70;99.90;;;;;;5977534;24;20024;-94
2022/09/27 07:49:51;;;;;;;8.57;1.40;;;9.70;99.90;;;;;;5956866;24;20514;-94
2022/09/27 07:52:21;;;;;;;4.63;0.85;;;9.80;99.90;;;;;;5959697;24;20020;-96
2022/09/27 07:54:47;;;;;;;4.70;1.00;;;9.80;99.90;;;;;;5963240;24;20049;-96
2022/09/27 07:57:14;;;;;;;5.55;1.27;;;9.80;99.90;;;;;;5958883;24;20013;-93
2022/09/27 07:59:43;;;;;;;5.93;1.30;;;10.00;99.90;;;;;;5985706;24;20017;-95
2022/09/27 08:02:14;;;;;;;5.15;1.30;;;10.10;99.90;;;;;;5962289;24;20020;-96
2022/09/27 08:04:42;;;;;;;6.13;1.30;;;10.10;99.90;;;;;;5964554;24;20095;-96
2022/09/27 08:07:09;;;;;;;5.32;1.50;;;10.20;99.90;;;;;;5962300;24;20257;-95
2022/09/27 08:09:35;;;;;;;6.63;1.30;;;10.40;99.90;;;;;;5967529;24;20024;-95
2022/09/27 08:12:03;;;;;;;5.38;1.27;;;10.50;99.90;;;;;;5967322;24;20040;-95
2022/09/27 08:14:30;;;;;;;4.80;1.35;;;10.60;99.90;;;;;;5974575;24;20052;-95
2022/09/27 08:16:56;;;;;;;5.07;1.20;;;10.70;99.90;;;;;;5991686;24;20321;-96
2022/09/27 08:19:22;;;;;;;4.30;0.95;;;10.90;99.90;;;;;;5972998;24;20028;-94
2022/09/27 08:21:50;;;;;;;5.25;1.08;;;11.00;99.90;;;;;;5964720;24;20049;-94
2022/09/27 08:24:15;;;;;;;4.68;1.27;;;11.10;99.90;;;;;;5968441;24;20020;-96
2022/09/27 08:26:41;;;;;;;4.38;0.80;;;11.20;99.90;;;;;;5984277;24;20013;-96
2022/09/27 08:29:06;;;;;;;4.55;1.25;;;11.40;99.90;;;;;;5988869;24;20016;-95
2022/09/27 08:31:32;;;;;;;4.90;1.00;;;11.40;99.90;;;;;;5984721;24;20028;-95
2022/09/27 08:33:58;;;;;;;4.72;1.00;;;11.40;99.90;;;;;;5986350;24;20024;-95
2022/09/27 08:36:24;;;;;;;7.20;0.90;;;11.30;99.90;;;;;;5983068;24;20352;-95
2022/09/27 08:38:50;;;;;;;3.33;0.80;;;11.40;99.90;;;;;;5982343;24;20080;-93
2022/09/27 08:41:32;;;;;;;5.72;0.90;;;11.30;99.90;;;;;;5955604;24;20135;-92
2022/09/27 08:44:36;;;;;;;5.47;1.13;;;11.20;99.90;;;;;;5957764;24;20000;-94
2022/09/27 08:47:30;;;;;;;7.57;1.17;;;11.30;99.90;;;;;;6008822;23;20020;-94
2022/09/27 08:50:14;;;;;;;5.70;1.00;;;11.40;99.90;;;;;;5960838;24;20016;-95
2022/09/27 08:52:46;;;;;;;5.97;1.20;;;11.40;99.90;;;;;;5963549;24;20012;-95
2022/09/27 08:55:49;;;;;;;5.38;1.10;;;11.50;99.90;;;;;;5957712;24;20020;-95
2022/09/27 08:58:27;;;;;;;4.32;0.98;;;11.50;99.90;;;;;;5853220;24;20060;-94
2022/09/27 09:00:54;;;;;;;5.30;0.90;;;11.60;99.90;;;;;;5871138;24;20025;-94
2022/09/27 09:03:24;;;;;;;4.28;1.00;;;11.70;99.90;;;;;;5894606;24;20021;-93
2022/09/27 09:06:08;;;;;;;6.32;1.00;;;11.70;99.90;;;;;;5867451;24;20113;-91
2022/09/27 09:08:59;;;;;;;5.90;1.02;;;11.90;99.90;;;;;;5867975;24;20036;-91
2022/09/27 09:15:03;;;;;;;3.88;1.08;;;12.20;99.90;;;;;;5868470;24;20029;-88
2022/09/27 09:18:08;;;;;;;3.10;1.10;;;12.30;99.90;;;;;;5891653;24;20017;-94
2022/09/27 09:20:53;;;;;;;3.92;0.77;;;12.30;99.90;;;;;;5837220;24;20105;-90
2022/09/27 09:23:58;;;;;;;5.95;1.05;;;12.20;99.90;;;;;;5869940;24;20060;-92
2022/09/27 09:26:32;;;;;;;6.13;1.05;;;12.10;99.90;;;;;;5891180;24;20044;-89
2022/09/27 09:29:19;;;;;;;3.70;1.20;;;12.10;99.90;;;;;;5891388;24;20348;-91
2022/09/27 09:32:22;;;;;;;3.13;0.77;;;12.10;99.90;;;;;;5896210;24;20027;-91
2022/09/27 09:34:58;;;;;;;2.10;0.80;;;12.00;99.90;;;;;;5975037;24;20072;-89
2022/09/27 09:37:42;;;;;;;2.85;0.70;;;11.90;99.90;;;;;;5976499;24;20016;-89
2022/09/27 09:40:22;;;;;;;2.92;0.70;;;11.90;99.90;;;;;;5977833;23;20442;-90
2022/09/27 09:42:56;;;;;;;5.05;0.90;;;11.90;99.90;;;;;;5974389;24;20090;-88
2022/09/27 09:45:32;;;;;;;5.05;0.95;;;11.90;99.90;;;;;;5975011;24;20016;-90
2022/09/27 09:48:22;;;;;;;2.97;0.82;;;12.00;99.90;;;;;;5975944;23;20035;-90
2022/09/27 09:50:51;;;;;;;2.42;0.70;;;12.00;99.90;;;;;;5974960;24;20027;-90
2022/09/27 09:53:32;;;;;;;5.10;0.80;;;12.00;99.90;;;;;;5977369;23;20064;-89
2022/09/27 09:56:04;;;;;;;5.72;1.02;;;12.00;99.90;;;;;;5975106;24;20020;-89
2022/09/27 09:58:35;;;;;;;5.13;0.95;;;12.10;99.90;;;;;;5975405;24;20444;-90
2022/09/27 10:01:22;;;;;;;5.88;1.00;;;12.10;99.90;;;;;;5976569;23;20008;-90
2022/09/27 10:03:48;;;;;;;4.18;0.70;;;12.20;99.90;;;;;;5974982;23;20079;-92
2022/09/27 10:06:15;;;;;;;2.45;0.50;;;12.20;99.90;;;;;;5975313;24;20024;-91
2022/09/27 10:08:42;;;;;;;3.60;0.60;;;12.20;99.90;;;;;;5952290;24;20023;-89
2022/09/27 10:11:19;;;;;;;7.13;0.85;;;12.20;99.90;;;;;;5976994;23;20008;-89
2022/09/27 10:13:45;;;;;;;6.20;0.93;;;12.30;99.90;;;;;;5974951;24;20096;-89
2022/09/27 10:16:14;;;;;;;3.85;0.68;;;12.30;99.90;;;;;;5976693;24;20059;-90
2022/09/27 10:18:41;;;;;;;5.30;0.70;;;12.40;99.90;;;;;;5973134;24;20758;-88
2022/09/27 10:21:24;;;;;;;2.55;0.55;;;12.40;99.90;;;;;;5972878;24;20020;-86
2022/09/27 10:24:03;;;;;;;3.10;0.68;;;12.40;99.90;;;;;;5969585;24;20020;-88
2022/09/27 10:26:30;;;;;;;3.67;0.70;;;12.40;99.90;;;;;;5973537;24;20463;-90
2022/09/27 10:28:55;;;;;;;4.10;0.57;;;12.40;99.90;;;;;;5950909;24;20016;-87
2022/09/27 10:31:21;;;;;;;3.95;0.60;;;12.40;99.90;;;;;;5974386;24;20035;-88
2022/09/27 10:34:04;;;;;;;4.38;0.80;;;12.50;99.90;;;;;;5975549;24;20038;-89
2022/09/27 10:36:32;;;;;;;4.13;0.70;;;12.40;99.90;;;;;;5976323;23;20055;-88
2022/09/27 10:38:59;;;;;;;3.85;0.60;;;12.40;99.90;;;;;;5973659;24;20397;-87
2022/09/27 10:41:26;;;;;;;2.10;0.65;;;12.40;99.90;;;;;;5974325;23;20095;-87
2022/09/27 10:43:52;;;;;;;2.45;0.60;;;12.40;99.90;;;;;;5974075;24;20020;-87
2022/09/27 10:46:33;;;;;;;2.10;0.60;;;12.40;99.90;;;;;;5972853;24;20067;-88
2022/09/27 10:49:26;;;;;;;2.42;0.75;;;12.40;99.90;;;;;;5972976;24;20016;-89
2022/09/27 10:51:55;;;;;;;2.97;0.55;;;12.40;99.90;;;;;;5974618;23;20111;-89
2022/09/27 10:54:27;;;;;;;3.03;0.60;;;12.40;99.90;;;;;;5973663;24;20016;-86
2022/09/27 10:57:00;;;;;;;2.22;0.50;;;12.50;99.90;;;;;;5973336;24;20031;-86
2022/09/27 10:59:29;;;;;;;2.72;0.50;;;12.60;99.90;;;;;;5973954;23;20016;-88
2022/09/27 11:01:57;;;;;;;2.78;0.60;;;12.80;99.90;;;;;;5974407;23;20278;-87
2022/09/27 11:04:35;;;;;;;2.05;0.50;;;12.90;99.90;;;;;;5975341;23;20081;-88
2022/09/27 11:07:18;;;;;;;4.32;0.60;;;12.90;99.90;;;;;;5974504;23;20023;-87
2022/09/27 11:09:54;;;;;;;3.35;0.60;;;13.00;99.90;;;;;;5974512;23;20023;-90
2022/09/27 11:12:21;;;;;;;3.65;0.60;;;13.00;99.90;;;;;;5973509;24;20508;-87
2022/09/27 11:15:14;;;;;;;1.80;0.60;;;13.10;99.90;;;;;;5974551;23;20380;-86
2022/09/27 11:17:46;;;;;;;2.92;0.65;;;13.10;99.90;;;;;;5974563;24;20460;-86
2022/09/27 11:20:44;;;;;;;4.30;0.77;;;13.10;99.90;;;;;;5973674;24;20024;-86
2022/09/27 11:23:39;;;;;;;4.80;0.50;;;13.10;99.90;;;;;;5966927;23;20012;-90
2022/09/27 11:26:25;;;;;;;2.88;0.70;;;12.90;99.90;;;;;;5976322;24;20017;-87
2022/09/27 11:29:09;;;;;;;3.03;0.75;;;12.70;99.90;;;;;;5973390;24;20020;-87
2022/09/27 11:32:01;;;;;;;3.50;0.52;;;12.50;99.90;;;;;;5971035;24;20020;-86
2022/09/27 11:34:53;;;;;;;4.50;0.85;;;12.40;99.90;;;;;;5975815;24;20501;-87
2022/09/27 11:37:24;;;;;;;3.13;0.68;;;12.20;99.90;;;;;;5976295;23;20065;-87
2022/09/27 11:39:53;;;;;;;4.68;0.70;;;12.20;99.90;;;;;;5974953;24;20375;-87
2022/09/27 11:42:43;;;;;;;3.67;0.75;;;12.10;99.90;;;;;;5949921;24;20063;-88
2022/09/27 11:45:29;;;;;;;3.40;0.80;;;12.10;99.90;;;;;;5974696;23;20016;-87
2022/09/27 11:48:40;;;;;;;3.55;0.52;;;12.10;99.90;;;;;;5974659;23;20171;-88
2022/09/27 11:51:30;;;;;;;3.75;0.60;;;12.20;99.90;;;;;;5971400;24;20450;-86
2022/09/27 11:54:21;;;;;;;2.92;0.60;;;12.30;99.90;;;;;;5962778;23;20458;-88
2022/09/27 11:56:54;;;;;;;2.17;0.50;;;12.40;99.90;;;;;;5972353;24;20076;-86
2022/09/27 11:59:36;;;;;;;2.30;0.50;;;12.50;99.90;;;;;;5972777;23;20051;-87
2022/09/27 12:02:32;;;;;;;1.92;0.50;;;12.50;99.90;;;;;;5973797;24;20020;-89
2022/09/27 12:05:18;;;;;;;2.95;0.55;;;12.60;99.90;;;;;;5975201;23;20097;-86
2022/09/27 12:08:12;;;;;;;2.17;0.55;;;12.60;99.90;;;;;;5974873;24;20032;-88
2022/09/27 12:10:41;;;;;;;4.13;0.85;;;12.70;99.90;;;;;;5974415;24;20024;-87
2022/09/27 12:13:12;;;;;;;3.72;0.70;;;12.70;99.90;;;;;;5975608;23;20047;-86
2022/09/27 12:15:42;;;;;;;2.60;0.43;;;12.70;99.90;;;;;;5974318;24;20332;-87
2022/09/27 12:18:31;;;;;;;2.33;0.40;;;12.70;99.90;;;;;;5974954;24;20083;-87
2022/09/27 12:21:01;;;;;;;2.25;0.50;;;12.70;99.90;;;;;;5974225;24;20100;-87
2022/09/27 12:23:56;;;;;;;1.02;0.38;;;12.80;99.90;;;;;;5977258;23;20087;-87
2022/09/27 12:26:42;;;;;;;2.55;0.50;;;12.80;99.90;;;;;;5972741;24;20020;-87
2022/09/27 12:29:24;;;;;;;2.10;0.50;;;12.90;99.90;;;;;;5971863;24;20021;-88
2022/09/27 12:31:55;;;;;;;0.85;0.20;;;13.10;99.90;;;;;;5975237;24;20024;-89
2022/09/27 12:34:49;;;;;;;2.75;0.50;;;13.10;99.90;;;;;;5974762;24;20024;-88
2022/09/27 12:37:23;;;;;;;2.63;0.60;;;13.10;99.90;;;;;;5976957;23;20100;-88
2022/09/27 12:39:54;;;;;;;2.20;0.50;;;13.20;99.90;;;;;;5974640;24;20337;-87
2022/09/27 12:42:40;;;;;;;1.98;0.47;;;13.20;99.90;;;;;;5974651;24;20055;-89
2022/09/27 12:45:11;;;;;;;3.92;0.60;;;13.20;99.90;;;;;;5972783;23;20016;-87
2022/09/27 12:47:39;;;;;;;;;;;13.20;99.90;;;;;;5973432;24;20019;-89
2022/09/27 12:50:18;;;;;;;4.20;0.65;;;13.10;99.90;;;;;;5995399;23;19922;-87
2022/09/27 12:52:50;;;;;;;5.28;1.00;;;13.00;99.90;;;;;;5974240;24;20347;-88
2022/09/27 12:55:25;;;;;;;5.20;0.80;;;13.00;99.90;;;;;;5973055;24;20132;-88
2022/09/27 12:58:28;;;;;;;3.95;0.80;;;13.00;99.90;;;;;;5973200;24;20031;-91
2022/09/27 13:01:08;;;;;;;3.75;0.88;;;13.00;99.90;;;;;;5951624;24;20020;-90
2022/09/27 13:03:34;;;;;;;4.97;0.77;;;12.90;99.90;;;;;;5973326;24;20084;-92
2022/09/27 13:06:34;;;;;;;4.10;0.77;;;12.90;99.90;;;;;;5981728;24;20016;-88
2022/09/27 13:09:06;;;;;;;3.03;0.88;;;12.90;99.90;;;;;;5976529;24;20056;-89
2022/09/27 13:11:48;;;;;;;3.28;0.80;;;13.00;99.90;;;;;;5973363;24;20419;-89
2022/09/27 13:14:25;;;;;;;3.53;0.70;;;13.10;99.90;;;;;;5973998;24;20024;-91
2022/09/27 13:16:51;;;;;;;4.13;0.88;;;13.10;99.90;;;;;;5975771;23;20426;-91
2022/09/27 13:19:35;;;;;;;3.08;0.60;;;13.20;99.90;;;;;;5974377;24;20031;-89
2022/09/27 13:22:25;;;;;;;5.60;0.80;;;13.20;99.90;;;;;;5974023;24;20020;-89
2022/09/27 13:24:51;;;;;;;3.28;0.70;;;13.10;99.90;;;;;;5974044;24;20024;-88
2022/09/27 13:27:28;;;;;;;4.55;0.80;;;13.00;99.90;;;;;;5974424;24;20432;-89
2022/09/27 13:30:09;;;;;;;4.00;0.70;;;13.00;99.90;;;;;;5973667;24;20023;-91
2022/09/27 13:32:35;;;;;;;3.72;0.60;;;12.90;99.90;;;;;;5976088;24;20316;-89